Airfield :
LOGIN :

Register | Disclaimer

   EN    FR    IT 

 










Legend :    VFR   Marginal VFR   IFR   Intensive IFR   Very Intensive IFR
Visi :
Ceiling :
>= 8 km
>= 3000ft
5 to 8 km
1000 to 3000 ft
1500m to 5 km
500 to 1000 ft
800 to 1500m
200 to 500 ft
< 800m
< 200 ft
Symbols :   Thunderstorms  Fog  Heavy snow  Heavy precipitations  Wind > 20 kt
SIGMETs :     Misc.  Thunderstorms  Icing  Turbulence  Mountain Waves  Volcanic Ashes







- Airport Elevation : 336 ft
- IATA code : GCI
- Download approach charts


EGJB - Guernsey

CURRENT METAR :
  • 240520Z 25004KT 9999 VCSH FEW020 SCT032 08/06 Q1008

EXPIRED METARs :
  • 240450Z 25005KT 9999 -SHRA FEW020 SCT032 08/06 Q1008
  • 240420Z 26004KT 9999 FEW020 08/07 Q1008
  • 240350Z 25004KT 9999 FEW018 08/07 Q1008

TAF TAF EGJB
Valid from the 24 at 06:00 until the 24 at 15:00 UTC


240459Z 2406/2415 26010KT 9999 FEW020 BKN040
PROB30
TEMPO 2406/2415 8000 SHRA BKN015CB
ATIS : +44 1481 238 957
No reported NOTAMs for that airfield.



MET'MAP, your aeronautical weather chart ! - Copyright ORBIFLY December 2007 - Disclaimer

ORBIFLY MET'MAP TEAM :

Programming & Development : Alexandra Zaïnal
Concept & Development : Baudouin d'Aumeries
Co-Development & Prog : Marc-Olivier Méhu
Technical & hardware support : Manuel Goepfert

Contact : metmap@orbifly.com




SOURCES & CREDITS :

   NOAA